Aviation Digital Data Service (ADDS)

Output produced by METARs form (1746 UTC 25 March 2019)
found at http://www.aviationweather.gov/metar/data/
 
METAR text: LFPO 251730Z 03014KT CAVOK 09/M01 Q1030 NOSIG
Conditions at: LFPO (PARIS/ORLY , FR) observed 1730 UTC 25 March 2019
Temperature: 9.0°C (48°F)
Dewpoint: -1.0°C (30°F) [RH = 49%]
Pressure (altimeter): 30.41 inches Hg (1030.0 mb)
Winds: from the NNE (30 degrees) at 16 MPH (14 knots; 7.2 m/s)
Visibility: 6 or more miles (10+ km)
Ceiling: ceiling and visibility are OK
Clouds: unknown
Weather: no significant weather observed at this time

METAR text: LFPO 251700Z 03015KT 360V060 CAVOK 10/M01 Q1030 NOSIG
Conditions at: LFPO (PARIS/ORLY , FR) observed 1700 UTC 25 March 2019
Temperature: 10.0°C (50°F)
Dewpoint: -1.0°C (30°F) [RH = 46%]
Pressure (altimeter): 30.41 inches Hg (1030.0 mb)
Winds: from the NNE (30 degrees) at 17 MPH (15 knots; 7.7 m/s)
Visibility: 6 or more miles (10+ km)
Ceiling: ceiling and visibility are OK
Clouds: unknown
Weather: no significant weather observed at this time

METAR text: LFPO 251630Z 36014KT 320V030 CAVOK 10/M01 Q1030 NOSIG
Conditions at: LFPO (PARIS/ORLY , FR) observed 1630 UTC 25 March 2019
Temperature: 10.0°C (50°F)
Dewpoint: -1.0°C (30°F) [RH = 46%]
Pressure (altimeter): 30.41 inches Hg (1030.0 mb)
Winds: from the N (360 degrees) at 16 MPH (14 knots; 7.2 m/s)
Visibility: 6 or more miles (10+ km)
Ceiling: ceiling and visibility are OK
Clouds: unknown
Weather: no significant weather observed at this time

METAR text: LFPO 251600Z 36016KT 330V030 CAVOK 10/M01 Q1029 NOSIG
Conditions at: LFPO (PARIS/ORLY , FR) observed 1600 UTC 25 March 2019
Temperature: 10.0°C (50°F)
Dewpoint: -1.0°C (30°F) [RH = 46%]
Pressure (altimeter): 30.38 inches Hg (1029.0 mb)
Winds: from the N (360 degrees) at 18 MPH (16 knots; 8.2 m/s)
Visibility: 6 or more miles (10+ km)
Ceiling: ceiling and visibility are OK
Clouds: unknown
Weather: no significant weather observed at this time

METAR text: LFPO 251530Z 02015KT 350V050 CAVOK 11/M01 Q1029 NOSIG
Conditions at: LFPO (PARIS/ORLY , FR) observed 1530 UTC 25 March 2019
Temperature: 11.0°C (52°F)
Dewpoint: -1.0°C (30°F) [RH = 43%]
Pressure (altimeter): 30.38 inches Hg (1029.0 mb)
Winds: from the NNE (20 degrees) at 17 MPH (15 knots; 7.7 m/s)
Visibility: 6 or more miles (10+ km)
Ceiling: ceiling and visibility are OK
Clouds: unknown
Weather: no significant weather observed at this time

METAR text: LFPO 251500Z 02017KT 350V050 CAVOK 11/M01 Q1029 NOSIG
Conditions at: LFPO (PARIS/ORLY , FR) observed 1500 UTC 25 March 2019
Temperature: 11.0°C (52°F)
Dewpoint: -1.0°C (30°F) [RH = 43%]
Pressure (altimeter): 30.38 inches Hg (1029.0 mb)
Winds: from the NNE (20 degrees) at 20 MPH (17 knots; 8.7 m/s)
Visibility: 6 or more miles (10+ km)
Ceiling: ceiling and visibility are OK
Clouds: unknown
Weather: no significant weather observed at this time

METAR text: LFPO 251430Z 02015KT CAVOK 11/M00 Q1029 NOSIG
Conditions at: LFPO (PARIS/ORLY , FR) observed 1430 UTC 25 March 2019
Temperature: 11.0°C (52°F)
Dewpoint: 0.0°C (32°F) [RH = 47%]
Pressure (altimeter): 30.38 inches Hg (1029.0 mb)
Winds: from the NNE (20 degrees) at 17 MPH (15 knots; 7.7 m/s)
Visibility: 6 or more miles (10+ km)
Ceiling: ceiling and visibility are OK
Clouds: unknown
Weather: no significant weather observed at this time

METAR text: LFPO 251400Z 02014KT 340V050 CAVOK 12/M00 Q1029 NOSIG
Conditions at: LFPO (PARIS/ORLY , FR) observed 1400 UTC 25 March 2019
Temperature: 12.0°C (54°F)
Dewpoint: 0.0°C (32°F) [RH = 44%]
Pressure (altimeter): 30.38 inches Hg (1029.0 mb)
Winds: from the NNE (20 degrees) at 16 MPH (14 knots; 7.2 m/s)
Visibility: 6 or more miles (10+ km)
Ceiling: ceiling and visibility are OK
Clouds: unknown
Weather: no significant weather observed at this time

METAR text: LFPO 251330Z 01014KT 330V050 CAVOK 12/M01 Q1029 NOSIG
Conditions at: LFPO (PARIS/ORLY , FR) observed 1330 UTC 25 March 2019
Temperature: 12.0°C (54°F)
Dewpoint: -1.0°C (30°F) [RH = 40%]
Pressure (altimeter): 30.38 inches Hg (1029.0 mb)
Winds: from the N (10 degrees) at 16 MPH (14 knots; 7.2 m/s)
Visibility: 6 or more miles (10+ km)
Ceiling: ceiling and visibility are OK
Clouds: unknown
Weather: no significant weather observed at this time

METAR text: LFPO 251300Z 36013KT 330V070 CAVOK 12/00 Q1029 NOSIG
Conditions at: LFPO (PARIS/ORLY , FR) observed 1300 UTC 25 March 2019
Temperature: 12.0°C (54°F)
Dewpoint: 0.0°C (32°F) [RH = 44%]
Pressure (altimeter): 30.38 inches Hg (1029.0 mb)
Winds: from the N (360 degrees) at 15 MPH (13 knots; 6.7 m/s)
Visibility: 6 or more miles (10+ km)
Ceiling: ceiling and visibility are OK
Clouds: unknown
Weather: no significant weather observed at this time

METAR text: LFPO 251230Z 01012KT 340V040 CAVOK 11/M00 Q1029 NOSIG
Conditions at: LFPO (PARIS/ORLY , FR) observed 1230 UTC 25 March 2019
Temperature: 11.0°C (52°F)
Dewpoint: 0.0°C (32°F) [RH = 47%]
Pressure (altimeter): 30.38 inches Hg (1029.0 mb)
Winds: from the N (10 degrees) at 14 MPH (12 knots; 6.2 m/s)
Visibility: 6 or more miles (10+ km)
Ceiling: ceiling and visibility are OK
Clouds: unknown
Weather: no significant weather observed at this time

METAR text: LFPO 251200Z 01015KT 330V050 CAVOK 11/M00 Q1029 NOSIG
Conditions at: LFPO (PARIS/ORLY , FR) observed 1200 UTC 25 March 2019
Temperature: 11.0°C (52°F)
Dewpoint: 0.0°C (32°F) [RH = 47%]
Pressure (altimeter): 30.38 inches Hg (1029.0 mb)
Winds: from the N (10 degrees) at 17 MPH (15 knots; 7.7 m/s)
Visibility: 6 or more miles (10+ km)
Ceiling: ceiling and visibility are OK
Clouds: unknown
Weather: no significant weather observed at this time

METAR text: LFPO 251130Z 02015KT 350V050 9999 FEW046 11/M00 Q1029 NOSIG
Conditions at: LFPO (PARIS/ORLY , FR) observed 1130 UTC 25 March 2019
Temperature: 11.0°C (52°F)
Dewpoint: 0.0°C (32°F) [RH = 47%]
Pressure (altimeter): 30.38 inches Hg (1029.0 mb)
Winds: from the NNE (20 degrees) at 17 MPH (15 knots; 7.7 m/s)
Visibility: 6 or more miles (10+ km)
Ceiling: at least 12,000 feet AGL
Clouds: few clouds at 4600 feet AGL
Weather: no significant weather observed at this time

METAR text: LFPO 251100Z 36013KT 330V050 9999 FEW043 11/00 Q1029 NOSIG
Conditions at: LFPO (PARIS/ORLY , FR) observed 1100 UTC 25 March 2019
Temperature: 11.0°C (52°F)
Dewpoint: 0.0°C (32°F) [RH = 47%]
Pressure (altimeter): 30.38 inches Hg (1029.0 mb)
Winds: from the N (360 degrees) at 15 MPH (13 knots; 6.7 m/s)
Visibility: 6 or more miles (10+ km)
Ceiling: at least 12,000 feet AGL
Clouds: few clouds at 4300 feet AGL
Weather: no significant weather observed at this time

METAR text: LFPO 251030Z 01015KT 9999 BKN040 11/01 Q1029 NOSIG
Conditions at: LFPO (PARIS/ORLY , FR) observed 1030 UTC 25 March 2019
Temperature: 11.0°C (52°F)
Dewpoint: 1.0°C (34°F) [RH = 50%]
Pressure (altimeter): 30.38 inches Hg (1029.0 mb)
Winds: from the N (10 degrees) at 17 MPH (15 knots; 7.7 m/s)
Visibility: 6 or more miles (10+ km)
Ceiling: 4000 feet AGL
Clouds: broken clouds at 4000 feet AGL
Weather: no significant weather observed at this time

METAR text: LFPO 251000Z 36016KT 9999 BKN040 09/01 Q1029 NOSIG
Conditions at: LFPO (PARIS/ORLY , FR) observed 1000 UTC 25 March 2019
Temperature: 9.0°C (48°F)
Dewpoint: 1.0°C (34°F) [RH = 57%]
Pressure (altimeter): 30.38 inches Hg (1029.0 mb)
Winds: from the N (360 degrees) at 18 MPH (16 knots; 8.2 m/s)
Visibility: 6 or more miles (10+ km)
Ceiling: 4000 feet AGL
Clouds: broken clouds at 4000 feet AGL
Weather: no significant weather observed at this time

METAR text: LFPO 250930Z 35015KT 330V030 9999 SCT038 10/01 Q1029 NOSIG
Conditions at: LFPO (PARIS/ORLY , FR) observed 0930 UTC 25 March 2019
Temperature: 10.0°C (50°F)
Dewpoint: 1.0°C (34°F) [RH = 53%]
Pressure (altimeter): 30.38 inches Hg (1029.0 mb)
Winds: from the N (350 degrees) at 17 MPH (15 knots; 7.7 m/s)
Visibility: 6 or more miles (10+ km)
Ceiling: at least 12,000 feet AGL
Clouds: scattered clouds at 3800 feet AGL
Weather: no significant weather observed at this time

METAR text: LFPO 250900Z 35011KT 320V020 9999 FEW028 09/03 Q1028 NOSIG
Conditions at: LFPO (PARIS/ORLY , FR) observed 0900 UTC 25 March 2019
Temperature: 9.0°C (48°F)
Dewpoint: 3.0°C (37°F) [RH = 66%]
Pressure (altimeter): 30.35 inches Hg (1028.0 mb)
Winds: from the N (350 degrees) at 13 MPH (11 knots; 5.7 m/s)
Visibility: 6 or more miles (10+ km)
Ceiling: at least 12,000 feet AGL
Clouds: few clouds at 2800 feet AGL
Weather: no significant weather observed at this time

METAR text: LFPO 250830Z 35014KT 9999 FEW025 09/03 Q1028 NOSIG
Conditions at: LFPO (PARIS/ORLY , FR) observed 0830 UTC 25 March 2019
Temperature: 9.0°C (48°F)
Dewpoint: 3.0°C (37°F) [RH = 66%]
Pressure (altimeter): 30.35 inches Hg (1028.0 mb)
Winds: from the N (350 degrees) at 16 MPH (14 knots; 7.2 m/s)
Visibility: 6 or more miles (10+ km)
Ceiling: at least 12,000 feet AGL
Clouds: few clouds at 2500 feet AGL
Weather: no significant weather observed at this time

METAR text: LFPO 250800Z 34009KT 310V010 9999 FEW016 08/04 Q1028 NOSIG
Conditions at: LFPO (PARIS/ORLY , FR) observed 0800 UTC 25 March 2019
Temperature: 8.0°C (46°F)
Dewpoint: 4.0°C (39°F) [RH = 76%]
Pressure (altimeter): 30.35 inches Hg (1028.0 mb)
Winds: from the NNW (340 degrees) at 10 MPH (9 knots; 4.6 m/s)
Visibility: 6 or more miles (10+ km)
Ceiling: at least 12,000 feet AGL
Clouds: few clouds at 1600 feet AGL
Weather: no significant weather observed at this time

METAR text: LFPO 250730Z 28004KT 260V360 CAVOK 07/04 Q1028 NOSIG
Conditions at: LFPO (PARIS/ORLY , FR) observed 0730 UTC 25 March 2019
Temperature: 7.0°C (45°F)
Dewpoint: 4.0°C (39°F) [RH = 81%]
Pressure (altimeter): 30.35 inches Hg (1028.0 mb)
Winds: from the W (280 degrees) at 5 MPH (4 knots; 2.1 m/s)
Visibility: 6 or more miles (10+ km)
Ceiling: ceiling and visibility are OK
Clouds: unknown
Weather: no significant weather observed at this time

METAR text: LFPO 250700Z 27005KT CAVOK 05/04 Q1028 NOSIG
Conditions at: LFPO (PARIS/ORLY , FR) observed 0700 UTC 25 March 2019
Temperature: 5.0°C (41°F)
Dewpoint: 4.0°C (39°F) [RH = 93%]
Pressure (altimeter): 30.35 inches Hg (1028.0 mb)
Winds: from the W (270 degrees) at 6 MPH (5 knots; 2.6 m/s)
Visibility: 6 or more miles (10+ km)
Ceiling: ceiling and visibility are OK
Clouds: unknown
Weather: no significant weather observed at this time

METAR text: LFPO 250630Z 28006KT CAVOK 04/03 Q1028 NOSIG
Conditions at: LFPO (PARIS/ORLY , FR) observed 0630 UTC 25 March 2019
Temperature: 4.0°C (39°F)
Dewpoint: 3.0°C (37°F) [RH = 93%]
Pressure (altimeter): 30.35 inches Hg (1028.0 mb)
Winds: from the W (280 degrees) at 7 MPH (6 knots; 3.1 m/s)
Visibility: 6 or more miles (10+ km)
Ceiling: ceiling and visibility are OK
Clouds: unknown
Weather: no significant weather observed at this time

METAR text: LFPO 250600Z 27005KT 9999 FEW046 03/01 Q1027 NOSIG
Conditions at: LFPO (PARIS/ORLY , FR) observed 0600 UTC 25 March 2019
Temperature: 3.0°C (37°F)
Dewpoint: 1.0°C (34°F) [RH = 87%]
Pressure (altimeter): 30.32 inches Hg (1027.0 mb)
Winds: from the W (270 degrees) at 6 MPH (5 knots; 2.6 m/s)
Visibility: 6 or more miles (10+ km)
Ceiling: at least 12,000 feet AGL
Clouds: few clouds at 4600 feet AGL
Weather: no significant weather observed at this time

METAR text: LFPO 250530Z 27002KT CAVOK 04/02 Q1027 NOSIG
Conditions at: LFPO (PARIS/ORLY , FR) observed 0530 UTC 25 March 2019
Temperature: 4.0°C (39°F)
Dewpoint: 2.0°C (36°F) [RH = 87%]
Pressure (altimeter): 30.32 inches Hg (1027.0 mb)
Winds: from the W (270 degrees) at 2 MPH (2 knots; 1.0 m/s)
Visibility: 6 or more miles (10+ km)
Ceiling: ceiling and visibility are OK
Clouds: unknown
Weather: no significant weather observed at this time

METAR text: LFPO 250500Z 29006KT CAVOK 03/00 Q1027 NOSIG
Conditions at: LFPO (PARIS/ORLY , FR) observed 0500 UTC 25 March 2019
Temperature: 3.0°C (37°F)
Dewpoint: 0.0°C (32°F) [RH = 81%]
Pressure (altimeter): 30.32 inches Hg (1027.0 mb)
Winds: from the WNW (290 degrees) at 7 MPH (6 knots; 3.1 m/s)
Visibility: 6 or more miles (10+ km)
Ceiling: ceiling and visibility are OK
Clouds: unknown
Weather: no significant weather observed at this time

METAR text: LFPO 250430Z 29005KT CAVOK 04/02 Q1027 NOSIG
Conditions at: LFPO (PARIS/ORLY , FR) observed 0430 UTC 25 March 2019
Temperature: 4.0°C (39°F)
Dewpoint: 2.0°C (36°F) [RH = 87%]
Pressure (altimeter): 30.32 inches Hg (1027.0 mb)
Winds: from the WNW (290 degrees) at 6 MPH (5 knots; 2.6 m/s)
Visibility: 6 or more miles (10+ km)
Ceiling: ceiling and visibility are OK
Clouds: unknown
Weather: no significant weather observed at this time

METAR text: LFPO 250400Z 29004KT CAVOK 04/02 Q1027 NOSIG
Conditions at: LFPO (PARIS/ORLY , FR) observed 0400 UTC 25 March 2019
Temperature: 4.0°C (39°F)
Dewpoint: 2.0°C (36°F) [RH = 87%]
Pressure (altimeter): 30.32 inches Hg (1027.0 mb)
Winds: from the WNW (290 degrees) at 5 MPH (4 knots; 2.1 m/s)
Visibility: 6 or more miles (10+ km)
Ceiling: ceiling and visibility are OK
Clouds: unknown
Weather: no significant weather observed at this time

METAR text: LFPO 250330Z 30006KT CAVOK 04/01 Q1027 NOSIG
Conditions at: LFPO (PARIS/ORLY , FR) observed 0330 UTC 25 March 2019
Temperature: 4.0°C (39°F)
Dewpoint: 1.0°C (34°F) [RH = 81%]
Pressure (altimeter): 30.32 inches Hg (1027.0 mb)
Winds: from the WNW (300 degrees) at 7 MPH (6 knots; 3.1 m/s)
Visibility: 6 or more miles (10+ km)
Ceiling: ceiling and visibility are OK
Clouds: unknown
Weather: no significant weather observed at this time

METAR text: LFPO 250300Z 29005KT CAVOK 03/M00 Q1027 NOSIG
Conditions at: LFPO (PARIS/ORLY , FR) observed 0300 UTC 25 March 2019
Temperature: 3.0°C (37°F)
Dewpoint: 0.0°C (32°F) [RH = 81%]
Pressure (altimeter): 30.32 inches Hg (1027.0 mb)
Winds: from the WNW (290 degrees) at 6 MPH (5 knots; 2.6 m/s)
Visibility: 6 or more miles (10+ km)
Ceiling: ceiling and visibility are OK
Clouds: unknown
Weather: no significant weather observed at this time

METAR text: LFPO 250230Z 28006KT CAVOK 03/M01 Q1027 NOSIG
Conditions at: LFPO (PARIS/ORLY , FR) observed 0230 UTC 25 March 2019
Temperature: 3.0°C (37°F)
Dewpoint: -1.0°C (30°F) [RH = 75%]
Pressure (altimeter): 30.32 inches Hg (1027.0 mb)
Winds: from the W (280 degrees) at 7 MPH (6 knots; 3.1 m/s)
Visibility: 6 or more miles (10+ km)
Ceiling: ceiling and visibility are OK
Clouds: unknown
Weather: no significant weather observed at this time

METAR text: LFPO 250200Z 28005KT CAVOK 03/M01 Q1027 NOSIG
Conditions at: LFPO (PARIS/ORLY , FR) observed 0200 UTC 25 March 2019
Temperature: 3.0°C (37°F)
Dewpoint: -1.0°C (30°F) [RH = 75%]
Pressure (altimeter): 30.32 inches Hg (1027.0 mb)
Winds: from the W (280 degrees) at 6 MPH (5 knots; 2.6 m/s)
Visibility: 6 or more miles (10+ km)
Ceiling: ceiling and visibility are OK
Clouds: unknown
Weather: no significant weather observed at this time

METAR text: LFPO 250130Z 29005KT CAVOK 04/M01 Q1027 NOSIG
Conditions at: LFPO (PARIS/ORLY , FR) observed 0130 UTC 25 March 2019
Temperature: 4.0°C (39°F)
Dewpoint: -1.0°C (30°F) [RH = 70%]
Pressure (altimeter): 30.32 inches Hg (1027.0 mb)
Winds: from the WNW (290 degrees) at 6 MPH (5 knots; 2.6 m/s)
Visibility: 6 or more miles (10+ km)
Ceiling: ceiling and visibility are OK
Clouds: unknown
Weather: no significant weather observed at this time

METAR text: LFPO 250100Z 31005KT CAVOK 04/M01 Q1027 NOSIG
Conditions at: LFPO (PARIS/ORLY , FR) observed 0100 UTC 25 March 2019
Temperature: 4.0°C (39°F)
Dewpoint: -1.0°C (30°F) [RH = 70%]
Pressure (altimeter): 30.32 inches Hg (1027.0 mb)
Winds: from the NW (310 degrees) at 6 MPH (5 knots; 2.6 m/s)
Visibility: 6 or more miles (10+ km)
Ceiling: ceiling and visibility are OK
Clouds: unknown
Weather: no significant weather observed at this time

METAR text: LFPO 250030Z 32006KT CAVOK 05/M01 Q1027 NOSIG
Conditions at: LFPO (PARIS/ORLY , FR) observed 0030 UTC 25 March 2019
Temperature: 5.0°C (41°F)
Dewpoint: -1.0°C (30°F) [RH = 65%]
Pressure (altimeter): 30.32 inches Hg (1027.0 mb)
Winds: from the NW (320 degrees) at 7 MPH (6 knots; 3.1 m/s)
Visibility: 6 or more miles (10+ km)
Ceiling: ceiling and visibility are OK
Clouds: unknown
Weather: no significant weather observed at this time

METAR text: LFPO 250000Z 31007KT CAVOK 06/M01 Q1028 NOSIG
Conditions at: LFPO (PARIS/ORLY , FR) observed 0000 UTC 25 March 2019
Temperature: 6.0°C (43°F)
Dewpoint: -1.0°C (30°F) [RH = 61%]
Pressure (altimeter): 30.35 inches Hg (1028.0 mb)
Winds: from the NW (310 degrees) at 8 MPH (7 knots; 3.6 m/s)
Visibility: 6 or more miles (10+ km)
Ceiling: ceiling and visibility are OK
Clouds: unknown
Weather: no significant weather observed at this time

METAR text: LFPO 242330Z 32005KT CAVOK 07/M00 Q1028 NOSIG
Conditions at: LFPO (PARIS/ORLY , FR) observed 2330 UTC 24 March 2019
Temperature: 7.0°C (45°F)
Dewpoint: 0.0°C (32°F) [RH = 61%]
Pressure (altimeter): 30.35 inches Hg (1028.0 mb)
Winds: from the NW (320 degrees) at 6 MPH (5 knots; 2.6 m/s)
Visibility: 6 or more miles (10+ km)
Ceiling: ceiling and visibility are OK
Clouds: unknown
Weather: no significant weather observed at this time

METAR text: LFPO 242300Z 33005KT 310V010 CAVOK 07/01 Q1028 NOSIG
Conditions at: LFPO (PARIS/ORLY , FR) observed 2300 UTC 24 March 2019
Temperature: 7.0°C (45°F)
Dewpoint: 1.0°C (34°F) [RH = 66%]
Pressure (altimeter): 30.35 inches Hg (1028.0 mb)
Winds: from the NNW (330 degrees) at 6 MPH (5 knots; 2.6 m/s)
Visibility: 6 or more miles (10+ km)
Ceiling: ceiling and visibility are OK
Clouds: unknown
Weather: no significant weather observed at this time

METAR text: LFPO 242230Z 33005KT CAVOK 07/02 Q1028 NOSIG
Conditions at: LFPO (PARIS/ORLY , FR) observed 2230 UTC 24 March 2019
Temperature: 7.0°C (45°F)
Dewpoint: 2.0°C (36°F) [RH = 70%]
Pressure (altimeter): 30.35 inches Hg (1028.0 mb)
Winds: from the NNW (330 degrees) at 6 MPH (5 knots; 2.6 m/s)
Visibility: 6 or more miles (10+ km)
Ceiling: ceiling and visibility are OK
Clouds: unknown
Weather: no significant weather observed at this time

METAR text: LFPO 242200Z 33007KT CAVOK 08/03 Q1028 NOSIG
Conditions at: LFPO (PARIS/ORLY , FR) observed 2200 UTC 24 March 2019
Temperature: 8.0°C (46°F)
Dewpoint: 3.0°C (37°F) [RH = 71%]
Pressure (altimeter): 30.35 inches Hg (1028.0 mb)
Winds: from the NNW (330 degrees) at 8 MPH (7 knots; 3.6 m/s)
Visibility: 6 or more miles (10+ km)
Ceiling: ceiling and visibility are OK
Clouds: unknown
Weather: no significant weather observed at this time

METAR text: LFPO 242130Z 32008KT 260V350 CAVOK 08/03 Q1028 NOSIG
Conditions at: LFPO (PARIS/ORLY , FR) observed 2130 UTC 24 March 2019
Temperature: 8.0°C (46°F)
Dewpoint: 3.0°C (37°F) [RH = 71%]
Pressure (altimeter): 30.35 inches Hg (1028.0 mb)
Winds: from the NW (320 degrees) at 9 MPH (8 knots; 4.1 m/s)
Visibility: 6 or more miles (10+ km)
Ceiling: ceiling and visibility are OK
Clouds: unknown
Weather: no significant weather observed at this time

METAR text: LFPO 242100Z 33006KT 270V060 CAVOK 08/02 Q1028 NOSIG
Conditions at: LFPO (PARIS/ORLY , FR) observed 2100 UTC 24 March 2019
Temperature: 8.0°C (46°F)
Dewpoint: 2.0°C (36°F) [RH = 66%]
Pressure (altimeter): 30.35 inches Hg (1028.0 mb)
Winds: from the NNW (330 degrees) at 7 MPH (6 knots; 3.1 m/s)
Visibility: 6 or more miles (10+ km)
Ceiling: ceiling and visibility are OK
Clouds: unknown
Weather: no significant weather observed at this time

METAR text: LFPO 242030Z 33007KT 270V040 CAVOK 08/02 Q1028 NOSIG
Conditions at: LFPO (PARIS/ORLY , FR) observed 2030 UTC 24 March 2019
Temperature: 8.0°C (46°F)
Dewpoint: 2.0°C (36°F) [RH = 66%]
Pressure (altimeter): 30.35 inches Hg (1028.0 mb)
Winds: from the NNW (330 degrees) at 8 MPH (7 knots; 3.6 m/s)
Visibility: 6 or more miles (10+ km)
Ceiling: ceiling and visibility are OK
Clouds: unknown
Weather: no significant weather observed at this time

METAR text: LFPO 241930Z 35004KT 320V060 CAVOK 09/02 Q1028 NOSIG
Conditions at: LFPO (PARIS/ORLY , FR) observed 1930 UTC 24 March 2019
Temperature: 9.0°C (48°F)
Dewpoint: 2.0°C (36°F) [RH = 61%]
Pressure (altimeter): 30.35 inches Hg (1028.0 mb)
Winds: from the N (350 degrees) at 5 MPH (4 knots; 2.1 m/s)
Visibility: 6 or more miles (10+ km)
Ceiling: ceiling and visibility are OK
Clouds: unknown
Weather: no significant weather observed at this time

METAR text: LFPO 241900Z 35006KT 320V050 9999 FEW043 09/03 Q1028 NOSIG
Conditions at: LFPO (PARIS/ORLY , FR) observed 1900 UTC 24 March 2019
Temperature: 9.0°C (48°F)
Dewpoint: 3.0°C (37°F) [RH = 66%]
Pressure (altimeter): 30.35 inches Hg (1028.0 mb)
Winds: from the N (350 degrees) at 7 MPH (6 knots; 3.1 m/s)
Visibility: 6 or more miles (10+ km)
Ceiling: at least 12,000 feet AGL
Clouds: few clouds at 4300 feet AGL
Weather: no significant weather observed at this time

METAR text: LFPO 241830Z 36006KT 330V040 9999 FEW040 10/03 Q1027 NOSIG
Conditions at: LFPO (PARIS/ORLY , FR) observed 1830 UTC 24 March 2019
Temperature: 10.0°C (50°F)
Dewpoint: 3.0°C (37°F) [RH = 62%]
Pressure (altimeter): 30.32 inches Hg (1027.0 mb)
Winds: from the N (360 degrees) at 7 MPH (6 knots; 3.1 m/s)
Visibility: 6 or more miles (10+ km)
Ceiling: at least 12,000 feet AGL
Clouds: few clouds at 4000 feet AGL
Weather: no significant weather observed at this time

METAR text: LFPO 241800Z 03007KT 360V060 9999 SCT040 11/03 Q1027 NOSIG
Conditions at: LFPO (PARIS/ORLY , FR) observed 1800 UTC 24 March 2019
Temperature: 11.0°C (52°F)
Dewpoint: 3.0°C (37°F) [RH = 58%]
Pressure (altimeter): 30.32 inches Hg (1027.0 mb)
Winds: from the NNE (30 degrees) at 8 MPH (7 knots; 3.6 m/s)
Visibility: 6 or more miles (10+ km)
Ceiling: at least 12,000 feet AGL
Clouds: scattered clouds at 4000 feet AGL
Weather: no significant weather observed at this time

METAR text: LFPO 241730Z 01007KT 9999 FEW035 BKN046 11/04 Q1027 NOSIG
Conditions at: LFPO (PARIS/ORLY , FR) observed 1730 UTC 24 March 2019
Temperature: 11.0°C (52°F)
Dewpoint: 4.0°C (39°F) [RH = 62%]
Pressure (altimeter): 30.32 inches Hg (1027.0 mb)
Winds: from the N (10 degrees) at 8 MPH (7 knots; 3.6 m/s)
Visibility: 6 or more miles (10+ km)
Ceiling: 4600 feet AGL
Clouds: few clouds at 3500 feet AGL
broken clouds at 4600 feet AGL
Weather: no significant weather observed at this time

METAR text: LFPO 241700Z 36007KT 330V030 9999 FEW033 SCT050 12/05 Q1027 NOSIG
Conditions at: LFPO (PARIS/ORLY , FR) observed 1700 UTC 24 March 2019
Temperature: 12.0°C (54°F)
Dewpoint: 5.0°C (41°F) [RH = 62%]
Pressure (altimeter): 30.32 inches Hg (1027.0 mb)
Winds: from the N (360 degrees) at 8 MPH (7 knots; 3.6 m/s)
Visibility: 6 or more miles (10+ km)
Ceiling: at least 12,000 feet AGL
Clouds: few clouds at 3300 feet AGL
scattered clouds at 5000 feet AGL
Weather: no significant weather observed at this time

METAR text: LFPO 241630Z 01008KT 9999 FEW032 BKN047 12/05 Q1027 NOSIG
Conditions at: LFPO (PARIS/ORLY , FR) observed 1630 UTC 24 March 2019
Temperature: 12.0°C (54°F)
Dewpoint: 5.0°C (41°F) [RH = 62%]
Pressure (altimeter): 30.32 inches Hg (1027.0 mb)
Winds: from the N (10 degrees) at 9 MPH (8 knots; 4.1 m/s)
Visibility: 6 or more miles (10+ km)
Ceiling: 4700 feet AGL
Clouds: few clouds at 3200 feet AGL
broken clouds at 4700 feet AGL
Weather: no significant weather observed at this time

METAR text: LFPO 241600Z 36008KT 9999 FEW032 BKN047 12/05 Q1027 NOSIG
Conditions at: LFPO (PARIS/ORLY , FR) observed 1600 UTC 24 March 2019
Temperature: 12.0°C (54°F)
Dewpoint: 5.0°C (41°F) [RH = 62%]
Pressure (altimeter): 30.32 inches Hg (1027.0 mb)
Winds: from the N (360 degrees) at 9 MPH (8 knots; 4.1 m/s)
Visibility: 6 or more miles (10+ km)
Ceiling: 4700 feet AGL
Clouds: few clouds at 3200 feet AGL
broken clouds at 4700 feet AGL
Weather: no significant weather observed at this time

METAR text: LFPO 241530Z 02011KT 330V050 9999 FEW032 BKN050 12/05 Q1027 NOSIG
Conditions at: LFPO (PARIS/ORLY , FR) observed 1530 UTC 24 March 2019
Temperature: 12.0°C (54°F)
Dewpoint: 5.0°C (41°F) [RH = 62%]
Pressure (altimeter): 30.32 inches Hg (1027.0 mb)
Winds: from the NNE (20 degrees) at 13 MPH (11 knots; 5.7 m/s)
Visibility: 6 or more miles (10+ km)
Ceiling: 5000 feet AGL
Clouds: few clouds at 3200 feet AGL
broken clouds at 5000 feet AGL
Weather: no significant weather observed at this time

METAR text: LFPO 241500Z 01010KT 340V040 9999 FEW031 BKN050 12/05 Q1027 NOSIG
Conditions at: LFPO (PARIS/ORLY , FR) observed 1500 UTC 24 March 2019
Temperature: 12.0°C (54°F)
Dewpoint: 5.0°C (41°F) [RH = 62%]
Pressure (altimeter): 30.32 inches Hg (1027.0 mb)
Winds: from the N (10 degrees) at 12 MPH (10 knots; 5.1 m/s)
Visibility: 6 or more miles (10+ km)
Ceiling: 5000 feet AGL
Clouds: few clouds at 3100 feet AGL
broken clouds at 5000 feet AGL
Weather: no significant weather observed at this time

METAR text: LFPO 241430Z 01011KT 9999 FEW027 BKN044 11/05 Q1027 NOSIG
Conditions at: LFPO (PARIS/ORLY , FR) observed 1430 UTC 24 March 2019
Temperature: 11.0°C (52°F)
Dewpoint: 5.0°C (41°F) [RH = 66%]
Pressure (altimeter): 30.32 inches Hg (1027.0 mb)
Winds: from the N (10 degrees) at 13 MPH (11 knots; 5.7 m/s)
Visibility: 6 or more miles (10+ km)
Ceiling: 4400 feet AGL
Clouds: few clouds at 2700 feet AGL
broken clouds at 4400 feet AGL
Weather: no significant weather observed at this time

METAR text: LFPO 241400Z 36011KT 9999 SCT027 BKN044 12/06 Q1027 NOSIG
Conditions at: LFPO (PARIS/ORLY , FR) observed 1400 UTC 24 March 2019
Temperature: 12.0°C (54°F)
Dewpoint: 6.0°C (43°F) [RH = 67%]
Pressure (altimeter): 30.32 inches Hg (1027.0 mb)
Winds: from the N (360 degrees) at 13 MPH (11 knots; 5.7 m/s)
Visibility: 6 or more miles (10+ km)
Ceiling: 4400 feet AGL
Clouds: scattered clouds at 2700 feet AGL
broken clouds at 4400 feet AGL
Weather: no significant weather observed at this time

METAR text: LFPO 241330Z 01010KT 320V060 9999 SCT026 BKN043 12/06 Q1027 NOSIG
Conditions at: LFPO (PARIS/ORLY , FR) observed 1330 UTC 24 March 2019
Temperature: 12.0°C (54°F)
Dewpoint: 6.0°C (43°F) [RH = 67%]
Pressure (altimeter): 30.32 inches Hg (1027.0 mb)
Winds: from the N (10 degrees) at 12 MPH (10 knots; 5.1 m/s)
Visibility: 6 or more miles (10+ km)
Ceiling: 4300 feet AGL
Clouds: scattered clouds at 2600 feet AGL
broken clouds at 4300 feet AGL
Weather: no significant weather observed at this time

METAR text: LFPO 241300Z 36009KT 330V040 9999 SCT026 BKN043 12/06 Q1027 NOSIG
Conditions at: LFPO (PARIS/ORLY , FR) observed 1300 UTC 24 March 2019
Temperature: 12.0°C (54°F)
Dewpoint: 6.0°C (43°F) [RH = 67%]
Pressure (altimeter): 30.32 inches Hg (1027.0 mb)
Winds: from the N (360 degrees) at 10 MPH (9 knots; 4.6 m/s)
Visibility: 6 or more miles (10+ km)
Ceiling: 4300 feet AGL
Clouds: scattered clouds at 2600 feet AGL
broken clouds at 4300 feet AGL
Weather: no significant weather observed at this time

METAR text: LFPO 241230Z 36008KT 310V050 9000 BKN026 SCT040 12/05 Q1027 NOSIG
Conditions at: LFPO (PARIS/ORLY , FR) observed 1230 UTC 24 March 2019
Temperature: 12.0°C (54°F)
Dewpoint: 5.0°C (41°F) [RH = 62%]
Pressure (altimeter): 30.32 inches Hg (1027.0 mb)
Winds: from the N (360 degrees) at 9 MPH (8 knots; 4.1 m/s)
Visibility: 6 miles ( 9 km)
Ceiling: 2600 feet AGL
Clouds: broken clouds at 2600 feet AGL
scattered clouds at 4000 feet AGL
Weather: no significant weather observed at this time

METAR text: LFPO 241200Z 02009KT 350V050 9000 SCT023 SCT040 12/06 Q1028 NOSIG
Conditions at: LFPO (PARIS/ORLY , FR) observed 1200 UTC 24 March 2019
Temperature: 12.0°C (54°F)
Dewpoint: 6.0°C (43°F) [RH = 67%]
Pressure (altimeter): 30.35 inches Hg (1028.0 mb)
Winds: from the NNE (20 degrees) at 10 MPH (9 knots; 4.6 m/s)
Visibility: 6 miles ( 9 km)
Ceiling: at least 12,000 feet AGL
Clouds: scattered clouds at 2300 feet AGL
scattered clouds at 4000 feet AGL
Weather: no significant weather observed at this time

METAR text: LFPO 241130Z 36007KT 320V030 8000 SCT022 BKN046 11/06 Q1028 NOSIG
Conditions at: LFPO (PARIS/ORLY , FR) observed 1130 UTC 24 March 2019
Temperature: 11.0°C (52°F)
Dewpoint: 6.0°C (43°F) [RH = 71%]
Pressure (altimeter): 30.35 inches Hg (1028.0 mb)
Winds: from the N (360 degrees) at 8 MPH (7 knots; 3.6 m/s)
Visibility: 5 miles ( 8 km)
Ceiling: 4600 feet AGL
Clouds: scattered clouds at 2200 feet AGL
broken clouds at 4600 feet AGL
Weather: no significant weather observed at this time

METAR text: LFPO 241100Z 01009KT 340V060 8000 BKN019 10/06 Q1028 NOSIG
Conditions at: LFPO (PARIS/ORLY , FR) observed 1100 UTC 24 March 2019
Temperature: 10.0°C (50°F)
Dewpoint: 6.0°C (43°F) [RH = 76%]
Pressure (altimeter): 30.35 inches Hg (1028.0 mb)
Winds: from the N (10 degrees) at 10 MPH (9 knots; 4.6 m/s)
Visibility: 5 miles ( 8 km)
Ceiling: 1900 feet AGL
Clouds: broken clouds at 1900 feet AGL
Weather: no significant weather observed at this time

METAR text: LFPO 241030Z 01010KT 350V050 8000 BKN018 10/06 Q1028 NOSIG
Conditions at: LFPO (PARIS/ORLY , FR) observed 1030 UTC 24 March 2019
Temperature: 10.0°C (50°F)
Dewpoint: 6.0°C (43°F) [RH = 76%]
Pressure (altimeter): 30.35 inches Hg (1028.0 mb)
Winds: from the N (10 degrees) at 12 MPH (10 knots; 5.1 m/s)
Visibility: 5 miles ( 8 km)
Ceiling: 1800 feet AGL
Clouds: broken clouds at 1800 feet AGL
Weather: no significant weather observed at this time

METAR text: LFPO 241000Z 36008KT 320V050 8000 BKN016 10/06 Q1028 NOSIG
Conditions at: LFPO (PARIS/ORLY , FR) observed 1000 UTC 24 March 2019
Temperature: 10.0°C (50°F)
Dewpoint: 6.0°C (43°F) [RH = 76%]
Pressure (altimeter): 30.35 inches Hg (1028.0 mb)
Winds: from the N (360 degrees) at 9 MPH (8 knots; 4.1 m/s)
Visibility: 5 miles ( 8 km)
Ceiling: 1600 feet AGL
Clouds: broken clouds at 1600 feet AGL
Weather: no significant weather observed at this time

METAR text: LFPO 240930Z 01008KT 330V050 7000 BKN015 09/06 Q1028 NOSIG
Conditions at: LFPO (PARIS/ORLY , FR) observed 0930 UTC 24 March 2019
Temperature: 9.0°C (48°F)
Dewpoint: 6.0°C (43°F) [RH = 81%]
Pressure (altimeter): 30.35 inches Hg (1028.0 mb)
Winds: from the N (10 degrees) at 9 MPH (8 knots; 4.1 m/s)
Visibility: 4 miles ( 7 km)
Ceiling: 1500 feet AGL
Clouds: broken clouds at 1500 feet AGL
Weather: no significant weather observed at this time

METAR text: LFPO 240900Z 02007KT 6000 SCT013 BKN015 09/06 Q1028 NOSIG
Conditions at: LFPO (PARIS/ORLY , FR) observed 0900 UTC 24 March 2019
Temperature: 9.0°C (48°F)
Dewpoint: 6.0°C (43°F) [RH = 81%]
Pressure (altimeter): 30.35 inches Hg (1028.0 mb)
Winds: from the NNE (20 degrees) at 8 MPH (7 knots; 3.6 m/s)
Visibility: 4 miles ( 6 km)
Ceiling: 1500 feet AGL
Clouds: scattered clouds at 1300 feet AGL
broken clouds at 1500 feet AGL
Weather: no significant weather observed at this time

METAR text: LFPO 240830Z 01009KT 6000 SCT013 BKN015 09/06 Q1028 NOSIG
Conditions at: LFPO (PARIS/ORLY , FR) observed 0830 UTC 24 March 2019
Temperature: 9.0°C (48°F)
Dewpoint: 6.0°C (43°F) [RH = 81%]
Pressure (altimeter): 30.35 inches Hg (1028.0 mb)
Winds: from the N (10 degrees) at 10 MPH (9 knots; 4.6 m/s)
Visibility: 4 miles ( 6 km)
Ceiling: 1500 feet AGL
Clouds: scattered clouds at 1300 feet AGL
broken clouds at 1500 feet AGL
Weather: no significant weather observed at this time

METAR text: LFPO 240800Z 04009KT 4500 BR FEW012 BKN016 09/06 Q1028 NOSIG
Conditions at: LFPO (PARIS/ORLY , FR) observed 0800 UTC 24 March 2019
Temperature: 9.0°C (48°F)
Dewpoint: 6.0°C (43°F) [RH = 81%]
Pressure (altimeter): 30.35 inches Hg (1028.0 mb)
Winds: from the NE (40 degrees) at 10 MPH (9 knots; 4.6 m/s)
Visibility: 2.80 miles (4.51 km)
Ceiling: 1600 feet AGL
Clouds: few clouds at 1200 feet AGL
broken clouds at 1600 feet AGL
Weather: BR  (mist)

METAR text: LFPO 240730Z 04007KT 360V060 4000 BR SCT012 BKN014 08/06 Q1028 NOSIG
Conditions at: LFPO (PARIS/ORLY , FR) observed 0730 UTC 24 March 2019
Temperature: 8.0°C (46°F)
Dewpoint: 6.0°C (43°F) [RH = 87%]
Pressure (altimeter): 30.35 inches Hg (1028.0 mb)
Winds: from the NE (40 degrees) at 8 MPH (7 knots; 3.6 m/s)
Visibility: 2.49 miles (4.01 km)
Ceiling: 1400 feet AGL
Clouds: scattered clouds at 1200 feet AGL
broken clouds at 1400 feet AGL
Weather: BR  (mist)

METAR text: LFPO 240700Z 04009KT 3500 BR BKN012 BKN016 08/06 Q1028 NOSIG
Conditions at: LFPO (PARIS/ORLY , FR) observed 0700 UTC 24 March 2019
Temperature: 8.0°C (46°F)
Dewpoint: 6.0°C (43°F) [RH = 87%]
Pressure (altimeter): 30.35 inches Hg (1028.0 mb)
Winds: from the NE (40 degrees) at 10 MPH (9 knots; 4.6 m/s)
Visibility: 2.17 miles (3.49 km)
Ceiling: 1200 feet AGL
Clouds: broken clouds at 1200 feet AGL
broken clouds at 1600 feet AGL
Weather: BR  (mist)

METAR text: LFPO 240630Z 04007KT 010V070 3500 BR SCT013 BKN016 08/06 Q1027 TEMPO BKN011
Conditions at: LFPO (PARIS/ORLY , FR) observed 0630 UTC 24 March 2019
Temperature: 8.0°C (46°F)
Dewpoint: 6.0°C (43°F) [RH = 87%]
Pressure (altimeter): 30.32 inches Hg (1027.0 mb)
Winds: from the NE (40 degrees) at 8 MPH (7 knots; 3.6 m/s)
Visibility: 2.17 miles (3.49 km)
Ceiling: 1600 feet AGL
Clouds: scattered clouds at 1300 feet AGL
broken clouds at 1600 feet AGL
Weather: BR  (mist)

METAR text: LFPO 240600Z 05006KT 3500 BR SCT012 BKN015 08/06 Q1028 TEMPO BKN011
Conditions at: LFPO (PARIS/ORLY , FR) observed 0600 UTC 24 March 2019
Temperature: 8.0°C (46°F)
Dewpoint: 6.0°C (43°F) [RH = 87%]
Pressure (altimeter): 30.35 inches Hg (1028.0 mb)
Winds: from the NE (50 degrees) at 7 MPH (6 knots; 3.1 m/s)
Visibility: 2.17 miles (3.49 km)
Ceiling: 1500 feet AGL
Clouds: scattered clouds at 1200 feet AGL
broken clouds at 1500 feet AGL
Weather: BR  (mist)

Forecast for: LFPO (PARIS/ORLY , FR)
Text: TAF LFPO 251700Z 2518/2624 36010G20KT CAVOK
Forecast period: 1800 UTC 25 March 2019 to 0000 UTC 27 March 2019
Forecast type: FROM: standard forecast or significant change
Winds: from the N (360 degrees) at 12 MPH (10 knots; 5.1 m/s)
gusting to 23 MPH (20 knots; 10.3 m/s)
Visibility: 6 or more miles 10+ km)
Ceiling: unknown
Clouds: missing
Weather: NSW  (no significant weather)
Text: BECMG 2518/2521 36008KT
Forecast period: 1800 UTC 25 March 2019 to 0000 UTC 27 March 2019
Forecast type: BECOMING: Conditions expected to become as follows by 2100 UTC 25 March 2019
Winds: from the N (360 degrees) at 9 MPH (8 knots; 4.1 m/s)
Visibility: 6 or more miles 10+ km)
Ceiling: unknown
Clouds: missing
Weather: NSW  (no significant weather)
Text: PROB40
Forecast period: 2300 UTC 25 March 2019 to 0800 UTC 26 March 2019
Forecast type: TEMPORARY: The following changes expected for less than half the time period
Visibility: missing
Ceiling: 1600 feet AGL
Clouds: broken clouds at 1600 feet AGL
Weather: no significant weather forecast for this period